createdAt,value
2017-09-05T00:00:59.013Z,10.20
2017-09-05T00:03:26.570Z,10.10
2017-09-05T00:05:54.843Z,10.10
2017-09-05T00:11:41.819Z,10.10
2017-09-05T00:14:14.987Z,10.10
2017-09-05T00:16:44.983Z,10.10
2017-09-05T00:19:16.286Z,10.30
2017-09-05T00:21:44.334Z,10.40
2017-09-05T00:24:11.844Z,10.40
2017-09-05T00:26:40.931Z,10.30
2017-09-05T00:29:08.444Z,10.30
2017-09-05T00:31:35.947Z,10.20
2017-09-05T00:34:03.450Z,10.10
2017-09-05T00:36:31.299Z,10.00
2017-09-05T00:38:58.998Z,10.00
2017-09-05T00:41:26.500Z,9.90
2017-09-05T00:43:54.011Z,9.80
2017-09-05T00:46:21.507Z,9.80
2017-09-05T00:48:52.923Z,9.80
2017-09-05T00:51:20.419Z,9.80
2017-09-05T00:53:49.356Z,9.80
2017-09-05T00:56:16.867Z,9.80
2017-09-05T00:58:44.875Z,9.80
2017-09-05T01:01:12.383Z,9.70
2017-09-05T01:03:39.879Z,9.60
2017-09-05T01:06:07.903Z,9.60
2017-09-05T01:08:35.408Z,9.50
2017-09-05T01:11:02.956Z,9.50
2017-09-05T01:13:30.468Z,9.50
2017-09-05T01:15:57.987Z,9.50
2017-09-05T01:18:25.503Z,9.50
2017-09-05T01:20:53.003Z,9.40
2017-09-05T01:23:21.412Z,9.40
2017-09-05T01:25:49.064Z,9.40
2017-09-05T01:28:16.667Z,9.50
2017-09-05T01:30:44.168Z,9.60
2017-09-05T01:33:11.663Z,9.70
2017-09-05T01:35:39.159Z,9.80
2017-09-05T01:38:06.767Z,9.80
2017-09-05T01:40:35.107Z,9.70
2017-09-05T01:43:02.707Z,9.60
2017-09-05T01:45:30.248Z,9.50
2017-09-05T01:47:57.746Z,9.40
2017-09-05T01:50:25.252Z,9.40
2017-09-05T01:52:52.744Z,9.50
2017-09-05T01:55:20.327Z,9.50
2017-09-05T01:57:48.755Z,9.40
2017-09-05T02:00:16.253Z,9.40
2017-09-05T02:02:43.967Z,9.40
2017-09-05T02:05:11.467Z,9.40
2017-09-05T02:07:39.217Z,9.40
2017-09-05T02:10:07.479Z,9.50
2017-09-05T02:12:34.991Z,9.60
2017-09-05T02:15:02.515Z,9.70
2017-09-05T02:17:30.019Z,9.70
2017-09-05T02:20:01.464Z,9.60
2017-09-05T02:22:28.971Z,9.60
2017-09-05T02:24:57.547Z,9.40
2017-09-05T02:27:25.272Z,9.40
2017-09-05T02:29:52.767Z,9.50
2017-09-05T02:32:20.280Z,9.50
2017-09-05T02:34:47.783Z,9.40
2017-09-05T02:37:16.220Z,9.40
2017-09-05T02:39:43.724Z,9.40
2017-09-05T02:42:11.233Z,9.30
2017-09-05T02:44:38.772Z,9.30
2017-09-05T02:47:06.309Z,9.30
2017-09-05T02:49:33.815Z,9.30
2017-09-05T02:52:01.682Z,9.40
2017-09-05T02:54:29.932Z,9.40
2017-09-05T02:56:57.582Z,9.40
2017-09-05T02:59:25.336Z,9.40
2017-09-05T03:01:52.872Z,9.40
2017-09-05T03:04:20.489Z,9.30
2017-09-05T03:06:48.936Z,9.30
2017-09-05T03:09:16.494Z,9.20
2017-09-05T03:11:44.006Z,9.20
2017-09-05T03:14:11.536Z,9.20
2017-09-05T03:16:39.051Z,9.20
2017-09-05T03:19:06.556Z,9.20
2017-09-05T03:21:34.056Z,9.20
2017-09-05T03:24:02.479Z,9.20
2017-09-05T03:26:29.987Z,9.20
2017-09-05T03:28:57.519Z,9.10
2017-09-05T03:31:25.027Z,9.10
2017-09-05T03:33:52.535Z,9.10
2017-09-05T03:36:20.250Z,9.10
2017-09-05T03:38:47.763Z,9.00
2017-09-05T03:41:16.187Z,9.20
2017-09-05T03:43:43.700Z,9.20
2017-09-05T03:46:11.200Z,9.30
2017-09-05T03:48:38.710Z,9.20
2017-09-05T03:51:09.215Z,9.20
2017-09-05T03:53:36.763Z,9.10
2017-09-05T03:56:04.262Z,9.10
2017-09-05T03:58:31.895Z,9.10
2017-09-05T04:01:00.003Z,9.10
2017-09-05T04:03:27.525Z,9.10
2017-09-05T04:05:55.231Z,9.00
2017-09-05T04:08:22.731Z,9.00
2017-09-05T04:10:50.235Z,9.00
2017-09-05T04:13:17.791Z,9.10
2017-09-05T04:15:45.335Z,9.10
2017-09-05T04:18:13.440Z,9.20
2017-09-05T04:20:40.940Z,9.20
2017-09-05T04:23:12.448Z,9.10
2017-09-05T04:25:39.963Z,9.10
2017-09-05T04:28:08.295Z,9.10
2017-09-05T04:30:35.800Z,9.00
2017-09-05T04:33:03.360Z,9.00
2017-09-05T04:35:30.875Z,9.00
2017-09-05T04:37:58.376Z,9.00
2017-09-05T04:40:25.887Z,9.00
2017-09-05T04:42:54.164Z,9.10
2017-09-05T04:45:21.663Z,9.10
2017-09-05T04:47:49.160Z,9.20
2017-09-05T04:50:17.491Z,9.20
2017-09-05T04:52:49.540Z,9.20
2017-09-05T04:55:17.059Z,9.20
2017-09-05T04:57:44.687Z,9.30
2017-09-05T05:00:12.184Z,9.50
2017-09-05T05:02:42.213Z,10.00
2017-09-05T05:05:09.723Z,10.00
2017-09-05T05:07:40.119Z,10.40
2017-09-05T05:10:07.664Z,10.80
2017-09-05T05:12:36.875Z,11.40
2017-09-05T05:15:04.391Z,11.40
2017-09-05T05:17:31.919Z,11.70
2017-09-05T05:19:59.863Z,12.10
2017-09-05T05:22:31.403Z,12.60
2017-09-05T05:24:58.903Z,13.10
2017-09-05T05:27:26.787Z,13.70
2017-09-05T05:29:54.514Z,14.30
2017-09-05T05:32:22.016Z,14.50
2017-09-05T05:34:50.499Z,14.50
2017-09-05T05:37:18.183Z,14.80
2017-09-05T05:39:45.695Z,15.20
2017-09-05T05:42:13.235Z,15.60
2017-09-05T05:44:40.767Z,15.90
2017-09-05T05:47:08.275Z,15.80
2017-09-05T05:49:35.788Z,15.40
2017-09-05T05:52:04.256Z,15.10
2017-09-05T05:54:32.871Z,14.50
2017-09-05T05:57:00.583Z,14.40
2017-09-05T05:59:28.831Z,14.20
2017-09-05T06:01:56.419Z,14.10
2017-09-05T06:04:24.000Z,14.00
2017-09-05T06:06:51.543Z,14.00
2017-09-05T06:09:19.099Z,13.90
2017-09-05T06:11:46.616Z,13.80
2017-09-05T06:14:14.151Z,13.70
2017-09-05T06:16:43.419Z,13.70
2017-09-05T06:19:10.939Z,13.70
2017-09-05T06:21:38.460Z,13.80
2017-09-05T06:24:07.801Z,14.00
2017-09-05T06:26:35.303Z,14.00
2017-09-05T06:29:02.815Z,14.10
2017-09-05T06:31:30.331Z,14.30
2017-09-05T06:33:58.664Z,14.60
2017-09-05T06:36:26.711Z,14.60
2017-09-05T06:38:54.212Z,14.60
2017-09-05T06:41:21.718Z,14.70
2017-09-05T06:43:49.236Z,14.80
2017-09-05T06:46:16.740Z,15.00
2017-09-05T06:48:44.254Z,15.00
2017-09-05T06:51:11.756Z,15.10
2017-09-05T06:53:40.276Z,15.20
2017-09-05T06:56:07.811Z,15.30
2017-09-05T06:58:35.324Z,15.50
2017-09-05T07:01:03.110Z,15.60
2017-09-05T07:03:31.127Z,15.70
2017-09-05T07:05:59.402Z,15.80
2017-09-05T07:08:28.221Z,15.90
2017-09-05T07:10:55.714Z,15.90
2017-09-05T07:13:24.035Z,15.90
2017-09-05T07:15:51.542Z,16.00
2017-09-05T07:18:19.071Z,16.00
2017-09-05T07:20:48.347Z,16.30
2017-09-05T07:23:15.851Z,16.20
2017-09-05T07:25:43.399Z,16.40
2017-09-05T07:28:10.899Z,16.50
2017-09-05T07:30:38.412Z,16.60
2017-09-05T07:33:06.128Z,16.80
2017-09-05T07:35:33.775Z,16.90
2017-09-05T07:38:02.649Z,17.00
2017-09-05T07:40:30.184Z,17.20
2017-09-05T07:42:58.468Z,17.70
2017-09-05T07:45:26.771Z,17.60
2017-09-05T07:47:54.283Z,17.90
2017-09-05T07:50:21.795Z,18.20
2017-09-05T07:52:49.365Z,18.40
2017-09-05T07:55:16.884Z,18.60
2017-09-05T07:57:44.392Z,18.80
2017-09-05T08:00:11.902Z,18.90
2017-09-05T08:02:39.651Z,19.10
2017-09-05T08:05:07.400Z,19.20
2017-09-05T08:07:34.911Z,19.10
2017-09-05T08:10:02.428Z,19.10
2017-09-05T08:12:30.232Z,19.20
2017-09-05T08:14:57.772Z,19.40
2017-09-05T08:17:25.337Z,19.60
2017-09-05T08:19:52.856Z,19.70
2017-09-05T08:22:20.369Z,19.70
2017-09-05T08:24:48.928Z,19.80
2017-09-05T08:27:16.484Z,19.80
2017-09-05T08:29:44.000Z,19.90
2017-09-05T08:32:11.499Z,20.00
2017-09-05T08:34:39.126Z,20.10
2017-09-05T08:37:06.652Z,20.30
2017-09-05T08:39:34.166Z,20.50
2017-09-05T08:42:02.080Z,20.60
2017-09-05T08:44:29.739Z,20.70
2017-09-05T08:46:57.235Z,20.80
2017-09-05T08:49:24.766Z,21.00
2017-09-05T08:51:52.284Z,21.20
2017-09-05T08:54:19.940Z,21.40
2017-09-05T08:56:47.461Z,21.50
2017-09-05T08:59:15.593Z,21.60
2017-09-05T09:01:43.099Z,21.60
2017-09-05T09:04:10.595Z,21.60
2017-09-05T09:06:38.439Z,21.70
2017-09-05T09:09:05.953Z,21.80
2017-09-05T09:11:33.459Z,21.80
2017-09-05T09:14:00.967Z,21.90
2017-09-05T09:16:29.227Z,21.90
2017-09-05T09:18:56.805Z,21.90
2017-09-05T09:21:24.328Z,22.00
2017-09-05T09:23:51.824Z,22.10
2017-09-05T09:26:19.358Z,22.20
2017-09-05T09:28:47.465Z,22.20
2017-09-05T09:31:15.014Z,22.20
2017-09-05T09:33:42.679Z,22.30
2017-09-05T09:36:10.183Z,22.30
2017-09-05T09:38:37.732Z,22.40
2017-09-05T09:41:05.228Z,22.40
2017-09-05T09:43:32.784Z,22.40
2017-09-05T09:46:00.460Z,22.50
2017-09-05T09:48:27.991Z,22.60
2017-09-05T09:50:56.170Z,22.60
2017-09-05T09:53:23.666Z,22.70
2017-09-05T09:55:51.239Z,22.70
2017-09-05T09:58:18.739Z,22.80
2017-09-05T10:00:46.256Z,22.90
2017-09-05T10:03:13.790Z,23.00
2017-09-05T10:05:41.339Z,23.10
2017-09-05T10:08:08.883Z,23.20
2017-09-05T10:10:36.908Z,23.20
2017-09-05T10:13:04.431Z,23.30
2017-09-05T10:15:31.977Z,23.20
2017-09-05T10:17:59.542Z,23.30
2017-09-05T10:20:27.047Z,23.20
2017-09-05T10:22:54.557Z,23.20
2017-09-05T10:25:22.096Z,23.00
2017-09-05T10:27:49.591Z,23.10
2017-09-05T10:30:22.140Z,23.30
2017-09-05T10:32:50.108Z,23.40
2017-09-05T10:35:18.294Z,23.40
2017-09-05T10:37:45.805Z,23.50
2017-09-05T10:40:13.335Z,23.60
2017-09-05T10:42:40.872Z,23.90
2017-09-05T10:45:08.429Z,24.00
2017-09-05T10:47:35.993Z,24.20
2017-09-05T10:50:03.491Z,24.30
2017-09-05T10:52:30.999Z,24.10
2017-09-05T10:54:59.203Z,23.90
2017-09-05T10:57:26.839Z,23.80
2017-09-05T10:59:54.675Z,23.50
2017-09-05T11:02:22.455Z,23.60
2017-09-05T11:04:49.965Z,23.80
2017-09-05T11:07:17.456Z,23.80
2017-09-05T11:09:46.376Z,23.80
2017-09-05T11:12:14.039Z,23.80
2017-09-05T11:14:46.220Z,24.00
2017-09-05T11:17:13.760Z,24.20
2017-09-05T11:19:41.456Z,24.40
2017-09-05T11:22:09.051Z,24.40
2017-09-05T11:24:36.648Z,24.50
2017-09-05T11:27:04.400Z,24.80
2017-09-05T11:29:31.902Z,24.60
2017-09-05T11:32:00.811Z,24.80
2017-09-05T11:34:28.320Z,24.80
2017-09-05T11:36:55.819Z,25.00
2017-09-05T11:39:23.355Z,25.00
2017-09-05T11:41:51.542Z,25.00
2017-09-05T11:44:21.833Z,24.60
2017-09-05T11:46:50.161Z,24.10
2017-09-05T11:49:17.720Z,24.10
2017-09-05T11:51:45.237Z,24.00
2017-09-05T11:54:12.836Z,24.10
2017-09-05T11:56:40.348Z,24.10
2017-09-05T11:59:10.874Z,24.20
2017-09-05T12:01:39.973Z,24.70
2017-09-05T12:04:07.505Z,24.70
2017-09-05T12:06:35.027Z,24.80
2017-09-05T12:09:04.163Z,25.00
2017-09-05T12:11:31.955Z,25.00
2017-09-05T12:13:59.612Z,25.20
2017-09-05T12:16:27.115Z,25.20
2017-09-05T12:18:54.838Z,25.40
2017-09-05T12:21:22.728Z,25.50
2017-09-05T12:23:50.239Z,25.40
2017-09-05T12:26:17.813Z,25.60
2017-09-05T12:28:45.320Z,25.80
2017-09-05T12:31:13.027Z,26.00
2017-09-05T12:33:40.787Z,26.10
2017-09-05T12:36:08.528Z,26.00
2017-09-05T12:38:36.629Z,25.90
2017-09-05T12:41:04.380Z,25.90
2017-09-05T12:43:31.951Z,25.80
2017-09-05T12:45:59.448Z,25.80
2017-09-05T12:48:27.000Z,25.70
2017-09-05T12:50:55.224Z,25.60
2017-09-05T12:53:22.735Z,25.40
2017-09-05T12:55:50.356Z,25.10
2017-09-05T12:58:18.106Z,25.00
2017-09-05T13:00:45.617Z,24.90
2017-09-05T13:03:13.169Z,25.00
2017-09-05T13:05:40.840Z,25.10
2017-09-05T13:08:09.477Z,25.20
2017-09-05T13:10:37.095Z,25.40
2017-09-05T13:13:05.649Z,25.20
2017-09-05T13:15:33.628Z,25.10
2017-09-05T13:18:01.174Z,25.10
2017-09-05T13:20:28.679Z,24.60
2017-09-05T13:22:56.176Z,24.40
2017-09-05T13:25:24.443Z,24.30
2017-09-05T13:27:52.916Z,24.30
2017-09-05T13:30:20.452Z,24.10
2017-09-05T13:32:48.105Z,24.10
2017-09-05T13:35:15.635Z,24.10
2017-09-05T13:37:43.163Z,24.20
2017-09-05T13:40:10.707Z,24.30
2017-09-05T13:42:38.266Z,24.30
2017-09-05T13:45:07.152Z,24.20
2017-09-05T13:47:34.697Z,24.20
2017-09-05T13:50:02.204Z,23.80
2017-09-05T13:52:29.887Z,23.40
2017-09-05T13:54:57.656Z,23.10
2017-09-05T13:57:26.643Z,23.20
2017-09-05T13:59:54.244Z,23.20
2017-09-05T14:02:21.751Z,23.20
2017-09-05T14:04:49.293Z,23.20
2017-09-05T14:07:16.834Z,23.20
2017-09-05T14:09:45.147Z,23.20
2017-09-05T14:12:12.653Z,23.30
2017-09-05T14:14:40.931Z,23.50
2017-09-05T14:17:08.496Z,23.40
2017-09-05T14:19:36.003Z,23.30
2017-09-05T14:22:04.269Z,23.30
2017-09-05T14:24:31.829Z,23.40
2017-09-05T14:26:59.348Z,23.50
2017-09-05T14:29:27.050Z,23.80
2017-09-05T14:31:54.539Z,23.90
2017-09-05T14:34:22.171Z,24.00
2017-09-05T14:36:49.667Z,23.90
2017-09-05T14:39:18.004Z,23.80
2017-09-05T14:41:45.509Z,24.00
2017-09-05T14:44:13.011Z,24.40
2017-09-05T14:46:40.857Z,24.60
2017-09-05T14:49:08.367Z,24.80
2017-09-05T14:51:35.867Z,24.70
2017-09-05T14:54:03.380Z,24.70
2017-09-05T14:56:31.132Z,24.20
2017-09-05T14:58:58.884Z,24.10
2017-09-05T15:01:26.392Z,23.90
2017-09-05T15:03:54.213Z,23.80
2017-09-05T15:06:21.719Z,24.00
2017-09-05T15:08:49.288Z,24.10
2017-09-05T15:11:17.116Z,24.30
2017-09-05T15:13:45.831Z,24.70
2017-09-05T15:16:13.372Z,24.70
2017-09-05T15:18:40.923Z,24.80
2017-09-05T15:21:08.649Z,24.90
2017-09-05T15:23:36.143Z,24.80
2017-09-05T15:26:04.907Z,24.40
2017-09-05T15:28:32.412Z,24.40
2017-09-05T15:30:59.999Z,24.30
2017-09-05T15:33:27.603Z,24.20
2017-09-05T15:35:55.115Z,24.20
2017-09-05T15:38:23.332Z,24.10
2017-09-05T15:40:50.853Z,24.00
2017-09-05T15:43:18.352Z,23.80
2017-09-05T15:45:45.894Z,23.70
2017-09-05T15:48:16.199Z,23.60
2017-09-05T15:50:44.032Z,23.50
2017-09-05T15:53:11.548Z,23.40
2017-09-05T15:55:39.074Z,23.30
2017-09-05T15:58:07.177Z,23.30
2017-09-05T16:00:35.194Z,23.20
2017-09-05T16:03:02.706Z,23.20
2017-09-05T16:05:33.139Z,23.00
2017-09-05T16:08:00.712Z,22.90
2017-09-05T16:10:28.344Z,22.80
2017-09-05T16:12:56.600Z,22.70
2017-09-05T16:15:24.188Z,22.50
2017-09-05T16:17:51.753Z,22.40
2017-09-05T16:20:19.308Z,22.30
2017-09-05T16:22:46.823Z,22.30
2017-09-05T16:25:14.327Z,22.30
2017-09-05T16:27:41.892Z,22.40
2017-09-05T16:30:10.145Z,22.40
2017-09-05T16:32:37.923Z,22.50
2017-09-05T16:35:05.492Z,22.60
2017-09-05T16:37:33.003Z,22.60
2017-09-05T16:40:00.567Z,22.60
2017-09-05T16:42:28.140Z,22.60
2017-09-05T16:44:56.099Z,22.60
2017-09-05T16:47:23.855Z,22.60
2017-09-05T16:49:51.401Z,22.60
2017-09-05T16:52:18.936Z,22.60
2017-09-05T16:54:46.439Z,22.50
2017-09-05T16:57:14.183Z,22.50
2017-09-05T16:59:42.707Z,22.40
2017-09-05T17:02:10.310Z,22.30
2017-09-05T17:04:37.872Z,22.20
2017-09-05T17:07:05.480Z,22.00
2017-09-05T17:09:33.100Z,21.90
2017-09-05T17:12:00.971Z,21.80
2017-09-05T17:14:28.601Z,21.70
2017-09-05T17:16:56.713Z,21.60
2017-09-05T17:19:28.568Z,21.50
2017-09-05T17:21:56.351Z,21.40
2017-09-05T17:24:24.748Z,21.20
2017-09-05T17:26:52.308Z,21.20
2017-09-05T17:29:19.918Z,21.10
2017-09-05T17:31:47.671Z,21.00
2017-09-05T17:34:15.993Z,20.90
2017-09-05T17:36:48.983Z,20.70
2017-09-05T17:39:16.572Z,20.50
2017-09-05T17:41:44.662Z,20.40
2017-09-05T17:44:12.361Z,20.20
2017-09-05T17:46:41.556Z,20.00
2017-09-05T17:49:09.059Z,20.00
2017-09-05T17:51:36.840Z,19.90
2017-09-05T17:54:04.348Z,19.80
2017-09-05T17:56:31.947Z,19.80
2017-09-05T17:59:00.474Z,19.80
2017-09-05T18:01:28.314Z,19.80
2017-09-05T18:03:56.002Z,19.80
2017-09-05T18:06:28.087Z,19.80
2017-09-05T18:08:56.826Z,19.70
2017-09-05T18:11:25.265Z,19.70
2017-09-05T18:13:52.836Z,19.70
2017-09-05T18:16:20.734Z,19.70
2017-09-05T18:18:48.803Z,19.70
2017-09-05T18:21:16.709Z,19.70
2017-09-05T18:23:44.947Z,19.70
2017-09-05T18:26:12.730Z,19.60
2017-09-05T18:28:40.709Z,19.60
2017-09-05T18:31:09.472Z,19.60
2017-09-05T18:33:37.036Z,19.50
2017-09-05T18:36:07.408Z,19.50
2017-09-05T18:38:34.990Z,19.50
2017-09-05T18:41:03.199Z,19.60
2017-09-05T18:43:31.053Z,19.60
2017-09-05T18:45:59.127Z,19.60
2017-09-05T18:48:26.763Z,19.50
2017-09-05T18:50:57.998Z,19.40
2017-09-05T18:53:26.105Z,19.40
2017-09-05T18:55:54.177Z,19.40
2017-09-05T18:58:22.248Z,19.40
2017-09-05T19:00:49.916Z,19.40
2017-09-05T19:03:17.664Z,19.40
2017-09-05T19:05:45.540Z,19.40
2017-09-05T19:08:13.613Z,19.40
2017-09-05T19:10:41.176Z,19.40
2017-09-05T19:13:08.793Z,19.40
2017-09-05T19:15:37.420Z,19.40
2017-09-05T19:18:05.028Z,19.40
2017-09-05T19:20:32.740Z,19.30
2017-09-05T19:23:00.336Z,19.20
2017-09-05T19:25:28.785Z,19.20
2017-09-05T19:27:57.032Z,19.10
2017-09-05T19:30:25.950Z,19.10
2017-09-05T19:32:53.496Z,19.00
2017-09-05T19:35:21.534Z,19.00
2017-09-05T19:37:49.554Z,18.90
2017-09-05T19:40:17.628Z,18.90
2017-09-05T19:42:46.626Z,18.90
2017-09-05T19:45:14.131Z,18.80
2017-09-05T19:47:42.144Z,18.80
2017-09-05T19:50:09.670Z,18.70
2017-09-05T19:52:37.233Z,18.70
2017-09-05T19:55:05.651Z,18.60
2017-09-05T19:57:33.690Z,18.60
2017-09-05T20:00:01.261Z,18.50
2017-09-05T20:02:29.031Z,18.50
2017-09-05T20:04:56.676Z,18.40
2017-09-05T20:07:24.851Z,18.50
2017-09-05T20:09:52.411Z,18.50
2017-09-05T20:12:19.956Z,18.50
2017-09-05T20:14:47.852Z,18.50
2017-09-05T20:17:15.436Z,18.40
2017-09-05T20:19:44.533Z,18.30
2017-09-05T20:22:12.629Z,18.30
2017-09-05T20:24:40.228Z,18.20
2017-09-05T20:27:08.333Z,18.10
2017-09-05T20:29:35.900Z,18.10
2017-09-05T20:32:03.431Z,18.10
2017-09-05T20:34:31.024Z,18.10
2017-09-05T20:36:58.958Z,18.10
2017-09-05T20:39:26.600Z,18.10
2017-09-05T20:41:56.815Z,18.10
2017-09-05T20:44:24.381Z,18.00
2017-09-05T20:46:52.084Z,18.00
2017-09-05T20:49:19.775Z,18.00
2017-09-05T20:51:47.283Z,17.90
2017-09-05T20:54:14.905Z,17.90
2017-09-05T20:56:45.908Z,17.80
2017-09-05T20:59:13.476Z,17.70
2017-09-05T21:01:41.677Z,17.70
2017-09-05T21:04:09.241Z,17.70
2017-09-05T21:06:36.851Z,17.70
2017-09-05T21:09:04.423Z,17.80
2017-09-05T21:11:43.000Z,17.80
2017-09-05T21:14:10.729Z,17.80
2017-09-05T21:16:38.296Z,17.80
2017-09-05T21:19:06.123Z,17.80
2017-09-05T21:21:33.951Z,17.80
2017-09-05T21:24:01.999Z,17.80
2017-09-05T21:26:29.502Z,17.80
2017-09-05T21:28:57.029Z,17.80
2017-09-05T21:31:24.851Z,17.80
2017-09-05T21:33:52.422Z,17.90
2017-09-05T21:36:20.694Z,17.90
2017-09-05T21:38:48.249Z,17.90
2017-09-05T21:41:15.826Z,17.90
2017-09-05T21:43:43.782Z,18.00
2017-09-05T21:46:11.487Z,18.00
2017-09-05T21:48:39.924Z,18.00
2017-09-05T21:51:07.431Z,18.00
2017-09-05T21:53:35.105Z,18.00
2017-09-05T21:56:02.619Z,18.00
2017-09-05T21:58:30.936Z,18.00
2017-09-05T22:00:59.493Z,18.00
2017-09-05T22:03:27.017Z,18.00
2017-09-05T22:05:54.623Z,18.10
2017-09-05T22:08:22.633Z,18.10
2017-09-05T22:10:50.186Z,18.00
2017-09-05T22:13:18.321Z,18.00
2017-09-05T22:15:45.923Z,18.10
2017-09-05T22:18:13.463Z,18.10
2017-09-05T22:20:46.609Z,18.10
2017-09-05T22:23:14.160Z,18.10
2017-09-05T22:25:50.252Z,18.10
2017-09-05T22:28:23.659Z,18.10
2017-09-05T22:30:51.243Z,18.10
2017-09-05T22:33:18.744Z,18.00
2017-09-05T22:35:46.458Z,18.10
2017-09-05T22:38:14.917Z,18.00
2017-09-05T22:40:42.423Z,18.00
2017-09-05T22:43:09.983Z,18.00
2017-09-05T22:45:37.510Z,18.00
2017-09-05T22:48:05.037Z,18.00
2017-09-05T22:50:32.802Z,18.00
2017-09-05T22:53:00.561Z,18.00
2017-09-05T22:55:36.013Z,18.00
2017-09-05T22:58:03.517Z,18.00
2017-09-05T23:00:31.032Z,18.00
2017-09-05T23:02:59.309Z,18.00
2017-09-05T23:05:27.020Z,18.00
2017-09-05T23:07:54.545Z,18.00
2017-09-05T23:10:22.060Z,18.00
2017-09-05T23:12:50.361Z,17.90
2017-09-05T23:15:18.132Z,17.90
2017-09-05T23:17:45.632Z,17.90
2017-09-05T23:20:13.168Z,17.90
2017-09-05T23:22:40.675Z,17.90
2017-09-05T23:25:08.171Z,17.90
2017-09-05T23:27:35.671Z,17.90
2017-09-05T23:30:03.279Z,17.90
2017-09-05T23:32:30.799Z,17.90
2017-09-05T23:34:58.304Z,17.90
2017-09-05T23:37:26.468Z,17.90
2017-09-05T23:39:53.967Z,17.90
2017-09-05T23:42:21.474Z,17.90
2017-09-05T23:44:48.989Z,17.90
2017-09-05T23:47:16.524Z,17.90
2017-09-05T23:49:44.027Z,17.90
2017-09-05T23:52:11.530Z,17.90
2017-09-05T23:54:39.280Z,17.90
2017-09-05T23:57:06.783Z,17.90
2017-09-05T23:59:34.787Z,17.80
